createdAt,value
2022-10-04T00:00:30.260Z,9.87
2022-10-04T00:03:12.578Z,9.40
2022-10-04T00:05:41.320Z,8.80
2022-10-04T00:08:42.324Z,11.67
2022-10-04T00:11:25.174Z,8.77
2022-10-04T00:14:00.996Z,6.83
2022-10-04T00:16:39.833Z,9.13
2022-10-04T00:19:15.873Z,7.47
2022-10-04T00:21:55.348Z,7.80
2022-10-04T00:24:30.402Z,6.97
2022-10-04T00:27:23.868Z,9.57
2022-10-04T00:30:02.320Z,6.37
2022-10-04T00:32:41.228Z,6.30
2022-10-04T00:35:37.230Z,7.27
2022-10-04T00:38:06.888Z,7.97
2022-10-04T00:40:38.685Z,5.87
2022-10-04T00:43:27.916Z,6.30
2022-10-04T00:46:20.401Z,6.83
2022-10-04T00:48:53.203Z,6.27
2022-10-04T00:51:26.702Z,7.57
2022-10-04T00:54:20.529Z,6.87
2022-10-04T00:56:52.472Z,6.20
2022-10-04T00:59:29.565Z,6.30
2022-10-04T01:02:05.690Z,6.67
2022-10-04T01:04:41.361Z,6.40
2022-10-04T01:07:10.479Z,8.40
2022-10-04T01:09:48.356Z,8.10
2022-10-04T01:12:37.030Z,10.20
2022-10-04T01:15:44.299Z,9.00
2022-10-04T01:18:16.202Z,7.30
2022-10-04T01:21:23.267Z,8.90
2022-10-04T01:24:15.876Z,8.93
2022-10-04T01:26:44.593Z,7.43
2022-10-04T01:29:18.272Z,8.37
2022-10-04T01:31:50.989Z,9.37
2022-10-04T01:34:22.922Z,8.93
2022-10-04T01:36:53.609Z,9.03
2022-10-04T01:39:23.065Z,10.60
2022-10-04T01:41:55.530Z,7.57
2022-10-04T01:44:31.629Z,10.23
2022-10-04T01:47:06.173Z,7.87
2022-10-04T01:49:36.887Z,6.57
2022-10-04T01:52:05.677Z,7.87
2022-10-04T01:54:35.979Z,6.90
2022-10-04T01:57:10.914Z,8.40
2022-10-04T01:59:52.818Z,9.80
2022-10-04T02:02:30.839Z,10.20
2022-10-04T02:04:59.510Z,8.57
2022-10-04T02:07:31.968Z,7.97
2022-10-04T02:10:03.092Z,9.37
2022-10-04T02:12:31.683Z,13.73
2022-10-04T02:15:01.793Z,8.90
2022-10-04T02:17:33.486Z,8.50
2022-10-04T02:20:01.582Z,9.20
2022-10-04T02:22:28.945Z,13.30
2022-10-04T02:24:57.735Z,15.73
2022-10-04T02:27:30.067Z,14.53
2022-10-04T02:30:05.408Z,13.83
2022-10-04T02:32:51.793Z,10.20
2022-10-04T02:35:20.008Z,13.67
2022-10-04T02:37:52.954Z,11.53
2022-10-04T02:40:26.560Z,11.00
2022-10-04T02:43:25.635Z,16.80
2022-10-04T02:45:56.691Z,20.00
2022-10-04T02:48:36.815Z,38.30
2022-10-04T02:51:17.911Z,20.83
2022-10-04T02:54:05.327Z,13.57
2022-10-04T02:56:33.479Z,27.97
2022-10-04T02:59:05.685Z,15.60
2022-10-04T03:02:01.452Z,20.20
2022-10-04T03:04:30.080Z,12.73
2022-10-04T03:06:59.626Z,11.83
2022-10-04T03:09:29.893Z,9.70
2022-10-04T03:11:57.568Z,11.10
2022-10-04T03:14:27.636Z,10.50
2022-10-04T03:16:57.993Z,7.73
2022-10-04T03:19:26.976Z,7.67
2022-10-04T03:22:00.813Z,7.53
2022-10-04T03:24:38.512Z,11.27
2022-10-04T03:27:08.759Z,17.03
2022-10-04T03:29:40.847Z,11.30
2022-10-04T03:32:07.851Z,13.37
2022-10-04T03:34:38.108Z,16.67
2022-10-04T03:37:15.044Z,8.00
2022-10-04T03:39:45.701Z,8.50
2022-10-04T03:42:17.611Z,8.07
2022-10-04T03:44:50.198Z,7.97
2022-10-04T03:47:30.806Z,10.17
2022-10-04T03:50:02.508Z,8.57
2022-10-04T03:52:34.886Z,8.03
2022-10-04T03:55:05.531Z,8.60
2022-10-04T03:57:33.478Z,10.90
2022-10-04T04:00:01.369Z,9.43
2022-10-04T04:02:46.225Z,9.47
2022-10-04T04:05:22.890Z,8.03
2022-10-04T04:08:10.813Z,12.43
2022-10-04T04:10:41.978Z,7.43
2022-10-04T04:13:11.638Z,8.80
2022-10-04T04:15:45.624Z,8.70
2022-10-04T04:18:19.995Z,11.47
2022-10-04T04:20:48.910Z,8.63
2022-10-04T04:23:25.870Z,8.20
2022-10-04T04:25:55.974Z,21.13
2022-10-04T04:28:25.684Z,9.53
2022-10-04T04:30:58.694Z,8.60
2022-10-04T04:33:35.010Z,8.87
2022-10-04T04:36:06.936Z,9.83
2022-10-04T04:38:35.371Z,8.40
2022-10-04T04:41:10.845Z,9.67
2022-10-04T04:43:43.827Z,10.47
2022-10-04T04:46:27.853Z,9.53
2022-10-04T04:49:02.594Z,8.63
2022-10-04T04:51:31.781Z,7.73
2022-10-04T04:54:01.868Z,7.30
2022-10-04T04:56:30.529Z,7.03
2022-10-04T04:58:59.866Z,6.47
2022-10-04T05:01:31.676Z,11.40
2022-10-04T05:04:06.720Z,6.30
2022-10-04T05:06:35.248Z,8.07
2022-10-04T05:09:03.113Z,11.23
2022-10-04T05:11:32.989Z,13.33
2022-10-04T05:14:11.953Z,6.73
2022-10-04T05:16:42.548Z,7.60
2022-10-04T05:19:15.530Z,7.23
2022-10-04T05:21:48.678Z,8.10
2022-10-04T05:24:23.766Z,7.80
2022-10-04T05:26:53.079Z,7.13
2022-10-04T05:29:24.133Z,7.60
2022-10-04T05:32:13.475Z,7.00
2022-10-04T05:34:45.346Z,7.60
2022-10-04T05:37:29.539Z,6.67
2022-10-04T05:40:13.186Z,6.63
2022-10-04T05:42:45.682Z,6.23
2022-10-04T05:45:29.831Z,5.60
2022-10-04T05:47:58.654Z,7.97
2022-10-04T05:50:41.247Z,6.03
2022-10-04T05:53:27.177Z,12.57
2022-10-04T05:56:15.263Z,15.83
2022-10-04T05:59:19.911Z,10.60
2022-10-04T06:01:55.571Z,7.47
2022-10-04T06:04:47.310Z,6.97
2022-10-04T06:07:40.551Z,7.30
2022-10-04T06:10:19.406Z,7.87
2022-10-04T06:13:02.228Z,8.03
2022-10-04T06:16:06.633Z,7.77
2022-10-04T06:18:40.582Z,7.07
2022-10-04T06:21:20.184Z,7.37
2022-10-04T06:24:02.811Z,7.17
2022-10-04T06:26:43.917Z,8.70
2022-10-04T06:29:16.471Z,6.70
2022-10-04T06:32:03.388Z,6.43
2022-10-04T06:34:36.086Z,6.73
2022-10-04T06:37:11.730Z,6.93
2022-10-04T06:40:07.685Z,7.33
2022-10-04T06:43:09.257Z,6.43
2022-10-04T06:46:06.856Z,8.60
2022-10-04T06:48:56.540Z,6.77
2022-10-04T06:51:50.935Z,13.17
2022-10-04T06:54:41.842Z,6.60
2022-10-04T06:57:08.510Z,6.97
2022-10-04T07:00:08.711Z,6.23
2022-10-04T07:03:00.950Z,6.70
2022-10-04T07:05:34.071Z,6.23
2022-10-04T07:08:12.247Z,7.93
2022-10-04T07:10:53.136Z,7.50
2022-10-04T07:13:42.895Z,8.03
2022-10-04T07:16:34.292Z,7.70
2022-10-04T07:19:19.421Z,7.57
2022-10-04T07:21:58.167Z,9.30
2022-10-04T07:24:39.473Z,10.87
2022-10-04T07:27:10.328Z,8.70
2022-10-04T07:29:42.466Z,8.70
2022-10-04T07:32:21.444Z,8.90
2022-10-04T07:34:56.994Z,9.67
2022-10-04T07:37:27.169Z,9.43
2022-10-04T07:40:05.344Z,9.63
2022-10-04T07:42:55.009Z,10.53
2022-10-04T07:45:33.506Z,8.67
2022-10-04T07:48:25.965Z,9.70
2022-10-04T07:51:18.861Z,11.40
2022-10-04T07:53:55.826Z,9.43
2022-10-04T07:56:31.900Z,10.17
2022-10-04T07:59:15.365Z,9.63
2022-10-04T08:01:54.211Z,10.27
2022-10-04T08:04:52.285Z,9.13
2022-10-04T08:07:23.803Z,11.37
2022-10-04T08:10:06.507Z,9.77
2022-10-04T08:12:48.552Z,10.60
2022-10-04T08:15:39.225Z,9.20
2022-10-04T08:18:30.717Z,11.63
2022-10-04T08:21:01.299Z,9.70
2022-10-04T08:23:49.414Z,9.23
2022-10-04T08:26:37.374Z,11.00
2022-10-04T08:29:43.476Z,9.67
2022-10-04T08:32:10.117Z,10.63
2022-10-04T08:35:11.506Z,12.23
2022-10-04T08:38:10.077Z,11.77
2022-10-04T08:40:59.564Z,10.40
2022-10-04T08:43:49.516Z,10.83
2022-10-04T08:46:31.321Z,10.63
2022-10-04T08:49:16.765Z,9.65
2022-10-04T08:51:43.382Z,13.32
2022-10-04T08:54:37.925Z,10.20
2022-10-04T08:57:36.171Z,10.10
2022-10-04T09:00:19.580Z,10.20
2022-10-04T09:03:26.621Z,11.45
2022-10-04T09:06:16.356Z,12.65
2022-10-04T09:09:20.589Z,11.80
2022-10-04T09:12:20.718Z,11.43
2022-10-04T09:15:19.224Z,12.75
2022-10-04T09:17:56.342Z,12.35
2022-10-04T09:20:41.797Z,13.02
2022-10-04T09:23:31.431Z,12.88
2022-10-04T09:26:23.929Z,14.25
2022-10-04T09:29:08.729Z,12.90
2022-10-04T09:31:38.365Z,13.43
2022-10-04T09:34:17.396Z,15.30
2022-10-04T09:37:08.237Z,13.32
2022-10-04T09:39:46.843Z,13.15
2022-10-04T09:42:39.138Z,13.75
2022-10-04T09:45:33.923Z,14.60
2022-10-04T09:48:35.370Z,13.13
2022-10-04T09:51:23.972Z,13.40
2022-10-04T09:53:59.560Z,14.48
2022-10-04T09:56:39.224Z,13.15
2022-10-04T09:59:38.959Z,12.30
2022-10-04T10:02:30.746Z,14.55
2022-10-04T10:05:27.718Z,14.57
2022-10-04T10:08:17.932Z,12.85
2022-10-04T10:11:31.594Z,13.77
2022-10-04T10:14:22.969Z,13.00
2022-10-04T10:17:40.115Z,14.48
2022-10-04T10:20:34.238Z,12.13
2022-10-04T10:23:00.859Z,12.77
2022-10-04T10:25:49.012Z,13.35
2022-10-04T10:28:21.582Z,16.13
2022-10-04T10:31:17.653Z,14.95
2022-10-04T10:34:13.315Z,12.60
2022-10-04T10:37:04.836Z,14.18
2022-10-04T10:39:49.380Z,11.68
2022-10-04T10:42:54.306Z,11.18
2022-10-04T10:45:52.436Z,10.35
2022-10-04T10:48:35.791Z,15.93
2022-10-04T10:51:27.271Z,13.30
2022-10-04T10:54:21.543Z,11.43
2022-10-04T10:57:03.263Z,10.95
2022-10-04T10:59:39.836Z,10.73
2022-10-04T11:02:50.009Z,10.90
2022-10-04T11:05:49.572Z,9.40
2022-10-04T11:08:38.099Z,9.57
2022-10-04T11:11:44.113Z,10.90
2022-10-04T11:14:19.695Z,11.00
2022-10-04T11:17:05.321Z,9.40
2022-10-04T11:19:38.198Z,9.45
2022-10-04T11:22:17.434Z,9.13
2022-10-04T11:24:56.520Z,9.63
2022-10-04T11:27:47.771Z,9.77
2022-10-04T11:30:24.955Z,11.77
2022-10-04T11:33:17.413Z,9.68
2022-10-04T11:36:08.150Z,10.70
2022-10-04T11:38:51.230Z,8.80
2022-10-04T11:41:28.211Z,8.95
2022-10-04T11:44:29.547Z,8.30
2022-10-04T11:47:15.111Z,9.40
2022-10-04T11:50:08.638Z,8.48
2022-10-04T11:53:06.045Z,7.30
2022-10-04T11:56:05.839Z,7.05
2022-10-04T11:58:58.599Z,5.82
2022-10-04T12:01:40.701Z,6.55
2022-10-04T12:04:18.079Z,7.13
2022-10-04T12:07:00.416Z,7.53
2022-10-04T12:09:46.958Z,7.38
2022-10-04T12:12:37.435Z,6.50
2022-10-04T12:15:30.281Z,7.55
2022-10-04T12:18:26.404Z,7.07
2022-10-04T12:21:24.550Z,6.70
2022-10-04T12:23:58.056Z,6.10
2022-10-04T12:26:39.685Z,7.43
2022-10-04T12:29:15.183Z,7.18
2022-10-04T12:31:47.046Z,6.70
2022-10-04T12:34:25.736Z,6.82
2022-10-04T12:37:07.428Z,6.70
2022-10-04T12:39:46.038Z,5.72
2022-10-04T12:42:48.361Z,6.32
2022-10-04T12:45:38.076Z,7.45
2022-10-04T12:48:17.064Z,5.40
2022-10-04T12:51:04.604Z,6.85
2022-10-04T12:53:37.268Z,6.03
2022-10-04T12:56:21.833Z,7.90
2022-10-04T12:59:34.578Z,6.90
2022-10-04T13:02:22.799Z,7.00
2022-10-04T13:04:59.262Z,7.50
2022-10-04T13:08:01.360Z,6.00
2022-10-04T13:10:33.984Z,5.30
2022-10-04T13:13:19.500Z,5.50
2022-10-04T13:19:32.738Z,5.50
2022-10-04T13:22:54.827Z,5.70
2022-10-04T13:25:28.185Z,5.20
2022-10-04T13:28:05.426Z,4.70
2022-10-04T13:30:50.900Z,4.05
2022-10-04T13:33:35.295Z,4.35
2022-10-04T13:36:34.713Z,3.95
2022-10-04T13:39:13.934Z,4.20
2022-10-04T13:41:55.361Z,3.88
2022-10-04T13:44:54.884Z,4.35
2022-10-04T13:47:44.800Z,3.35
2022-10-04T13:50:41.980Z,4.03
2022-10-04T13:53:53.936Z,4.10
2022-10-04T13:56:40.223Z,4.07
2022-10-04T13:59:26.635Z,4.30
2022-10-04T14:02:04.265Z,4.93
2022-10-04T14:04:52.732Z,5.03
2022-10-04T14:07:22.419Z,4.28
2022-10-04T14:10:24.296Z,3.70
2022-10-04T14:13:18.371Z,5.40
2022-10-04T14:16:24.823Z,4.93
2022-10-04T14:19:22.941Z,5.03
2022-10-04T14:22:04.735Z,5.30
2022-10-04T14:25:09.335Z,4.30
2022-10-04T14:27:43.443Z,4.20
2022-10-04T14:30:19.600Z,4.28
2022-10-04T14:32:57.276Z,5.28
2022-10-04T14:36:12.612Z,4.18
2022-10-04T14:39:07.502Z,5.07
2022-10-04T14:41:37.014Z,5.60
2022-10-04T14:44:21.881Z,4.68
2022-10-04T14:47:05.036Z,4.63
2022-10-04T14:49:47.999Z,4.10
2022-10-04T14:52:28.497Z,3.97
2022-10-04T14:55:35.463Z,4.07
2022-10-04T14:58:22.217Z,5.38
2022-10-04T15:01:16.889Z,5.10
2022-10-04T15:04:00.445Z,4.35
2022-10-04T15:06:57.777Z,4.47
2022-10-04T15:09:48.441Z,6.35
2022-10-04T15:12:40.589Z,4.95
2022-10-04T15:15:16.785Z,4.32
2022-10-04T15:17:57.976Z,4.65
2022-10-04T15:20:35.293Z,5.03
2022-10-04T15:23:01.880Z,4.93
2022-10-04T15:25:59.516Z,5.55
2022-10-04T15:28:49.790Z,6.43
2022-10-04T15:31:37.702Z,5.18
2022-10-04T15:34:42.273Z,4.63
2022-10-04T15:37:39.376Z,5.10
2022-10-04T15:40:29.803Z,4.45
2022-10-04T15:43:18.645Z,6.25
2022-10-04T15:46:02.934Z,6.13
2022-10-04T15:48:49.588Z,5.07
2022-10-04T15:51:43.955Z,4.72
2022-10-04T15:54:52.025Z,5.10
2022-10-04T15:57:27.942Z,5.63
2022-10-04T16:00:15.210Z,4.30
2022-10-04T16:03:15.316Z,4.38
2022-10-04T16:06:06.732Z,5.30
2022-10-04T16:08:52.461Z,4.60
2022-10-04T16:11:46.058Z,4.88
2022-10-04T16:14:45.029Z,4.63
2022-10-04T16:17:35.035Z,8.88
2022-10-04T16:20:35.357Z,6.18
2022-10-04T16:23:24.126Z,4.70
2022-10-04T16:25:53.299Z,4.50
2022-10-04T16:28:37.032Z,4.78
2022-10-04T16:31:20.756Z,5.53
2022-10-04T16:34:21.935Z,5.30
2022-10-04T16:36:54.373Z,6.20
2022-10-04T16:40:02.978Z,4.47
2022-10-04T16:42:44.659Z,5.45
2022-10-04T16:45:11.895Z,7.07
2022-10-04T16:47:47.744Z,6.80
2022-10-04T16:50:53.025Z,9.65
2022-10-04T16:53:48.442Z,18.05
2022-10-04T16:56:17.877Z,10.68
2022-10-04T16:59:08.956Z,11.57
2022-10-04T17:01:41.351Z,7.38
2022-10-04T17:04:34.476Z,7.05
2022-10-04T17:07:33.799Z,5.88
2022-10-04T17:10:20.322Z,5.20
2022-10-04T17:13:19.183Z,5.95
2022-10-04T17:15:49.157Z,4.93
2022-10-04T17:18:41.410Z,5.43
2022-10-04T17:21:46.060Z,10.38
2022-10-04T17:24:20.048Z,9.98
2022-10-04T17:26:49.567Z,8.85
2022-10-04T17:29:16.410Z,8.13
2022-10-04T17:32:18.572Z,7.78
2022-10-04T17:34:57.504Z,8.82
2022-10-04T17:37:44.844Z,7.70
2022-10-04T17:40:17.606Z,8.95
2022-10-04T17:43:08.241Z,8.25
2022-10-04T17:45:58.990Z,11.35
2022-10-04T17:48:51.370Z,10.90
2022-10-04T17:51:39.327Z,9.38
2022-10-04T17:54:40.690Z,10.55
2022-10-04T17:57:09.033Z,9.23
2022-10-04T17:59:46.116Z,9.18
2022-10-04T18:02:44.894Z,7.88
2022-10-04T18:05:18.136Z,8.88
2022-10-04T18:07:52.573Z,9.98
2022-10-04T18:10:42.581Z,8.77
2022-10-04T18:13:33.709Z,8.60
2022-10-04T18:16:22.712Z,7.90
2022-10-04T18:18:51.050Z,9.10
2022-10-04T18:21:28.775Z,6.70
2022-10-04T18:24:15.270Z,7.50
2022-10-04T18:26:57.834Z,8.20
2022-10-04T18:29:39.366Z,7.30
2022-10-04T18:32:25.972Z,7.43
2022-10-04T18:35:01.020Z,7.53
2022-10-04T18:37:38.338Z,9.52
2022-10-04T18:40:19.053Z,7.90
2022-10-04T18:42:57.726Z,7.32
2022-10-04T18:45:34.763Z,7.13
2022-10-04T18:48:15.727Z,7.40
2022-10-04T18:50:45.207Z,8.18
2022-10-04T18:53:36.465Z,9.05
2022-10-04T18:56:09.419Z,10.00
2022-10-04T18:59:19.851Z,9.23
2022-10-04T19:02:13.168Z,8.40
2022-10-04T19:05:17.506Z,8.30
2022-10-04T19:08:08.499Z,8.82
2022-10-04T19:10:51.048Z,8.75
2022-10-04T19:13:26.953Z,8.73
2022-10-04T19:16:02.533Z,9.43
2022-10-04T19:19:01.269Z,8.77
2022-10-04T19:21:49.633Z,9.73
2022-10-04T19:24:34.776Z,10.52
2022-10-04T19:27:15.450Z,11.02
2022-10-04T19:29:57.085Z,10.18
2022-10-04T19:32:47.972Z,9.32
2022-10-04T19:35:31.510Z,10.38
2022-10-04T19:38:17.113Z,10.27
2022-10-04T19:40:55.193Z,10.00
2022-10-04T19:43:34.434Z,11.88
2022-10-04T19:46:08.473Z,11.63
2022-10-04T19:48:50.077Z,10.15
2022-10-04T19:51:41.562Z,9.77
2022-10-04T19:54:15.948Z,11.85
2022-10-04T19:56:47.813Z,10.85
2022-10-04T19:59:23.554Z,8.98
2022-10-04T20:01:52.646Z,9.27
2022-10-04T20:04:34.969Z,10.63
2022-10-04T20:07:23.745Z,9.90
2022-10-04T20:10:15.330Z,9.35
2022-10-04T20:12:45.019Z,9.68
2022-10-04T20:15:27.337Z,9.68
2022-10-04T20:17:55.913Z,8.98
2022-10-04T20:20:54.363Z,9.00
2022-10-04T20:23:39.341Z,8.63
2022-10-04T20:26:11.049Z,7.75
2022-10-04T20:28:40.300Z,11.25
2022-10-04T20:31:09.557Z,7.00
2022-10-04T20:33:46.867Z,7.05
2022-10-04T20:36:50.943Z,6.88
2022-10-04T20:39:55.786Z,6.60
2022-10-04T20:42:37.337Z,7.28
2022-10-04T20:45:10.331Z,6.95
2022-10-04T20:47:57.464Z,7.35
2022-10-04T20:50:42.109Z,7.88
2022-10-04T20:53:21.212Z,7.82
2022-10-04T20:55:49.430Z,6.65
2022-10-04T20:58:23.622Z,6.95
2022-10-04T21:00:55.482Z,7.00
2022-10-04T21:03:22.959Z,8.00
2022-10-04T21:06:02.156Z,7.03
2022-10-04T21:08:29.843Z,7.65
2022-10-04T21:11:08.381Z,8.23
2022-10-04T21:14:13.555Z,7.88
2022-10-04T21:16:45.049Z,7.82
2022-10-04T21:19:35.549Z,7.22
2022-10-04T21:22:06.257Z,8.55
2022-10-04T21:24:53.005Z,7.53
2022-10-04T21:27:41.099Z,7.35
2022-10-04T21:30:13.603Z,7.68
2022-10-04T21:32:40.357Z,9.77
2022-10-04T21:35:08.279Z,6.97
2022-10-04T21:37:36.005Z,7.20
2022-10-04T21:40:04.257Z,7.57
2022-10-04T21:42:30.931Z,8.20
2022-10-04T21:44:58.022Z,11.77
2022-10-04T21:47:24.896Z,7.70
2022-10-04T21:49:55.095Z,9.98
2022-10-04T21:52:21.887Z,8.07
2022-10-04T21:54:48.668Z,9.20
2022-10-04T21:57:15.423Z,8.60
2022-10-04T21:59:42.132Z,8.00
2022-10-04T22:02:08.897Z,9.32
2022-10-04T22:04:35.608Z,7.10
2022-10-04T22:07:02.444Z,8.38
2022-10-04T22:09:29.156Z,7.88
2022-10-04T22:11:56.114Z,7.03
2022-10-04T22:14:22.861Z,5.80
2022-10-04T22:16:50.399Z,6.32
2022-10-04T22:19:17.701Z,6.90
2022-10-04T22:21:44.392Z,6.70
2022-10-04T22:24:17.548Z,5.97
2022-10-04T22:26:44.910Z,7.32
2022-10-04T22:29:17.457Z,6.60
2022-10-04T22:31:50.783Z,6.47
2022-10-04T22:34:23.067Z,6.22
2022-10-04T22:36:52.113Z,6.45
2022-10-04T22:39:20.767Z,8.30
2022-10-04T22:41:48.506Z,8.68
2022-10-04T22:44:19.437Z,6.30
2022-10-04T22:46:49.514Z,6.47
2022-10-04T22:49:19.631Z,6.57
2022-10-04T22:51:48.972Z,6.80
2022-10-04T22:54:25.858Z,7.40
2022-10-04T22:56:53.696Z,8.13
2022-10-04T22:59:23.077Z,7.78
2022-10-04T23:01:49.788Z,8.27
2022-10-04T23:04:22.989Z,7.55
2022-10-04T23:06:50.818Z,6.70
2022-10-04T23:09:18.265Z,7.03
2022-10-04T23:11:45.681Z,6.47
2022-10-04T23:14:12.509Z,5.75
2022-10-04T23:16:39.655Z,8.10
2022-10-04T23:19:15.737Z,5.68
2022-10-04T23:21:45.006Z,6.72
2022-10-04T23:24:19.134Z,5.50
2022-10-04T23:26:56.423Z,5.25
2022-10-04T23:29:34.706Z,5.63
2022-10-04T23:32:09.406Z,6.78
2022-10-04T23:34:38.575Z,5.57
2022-10-04T23:37:16.015Z,5.57
2022-10-04T23:39:43.566Z,5.82
2022-10-04T23:42:21.040Z,5.68
2022-10-04T23:44:49.659Z,6.05
2022-10-04T23:47:18.992Z,5.40
2022-10-04T23:49:48.259Z,8.20
2022-10-04T23:52:33.851Z,5.38
2022-10-04T23:55:00.915Z,6.90
2022-10-04T23:57:32.591Z,5.53
